createdAt,value
2018-06-13T00:02:26.982Z,73.37
2018-06-13T00:04:55.718Z,72.76
2018-06-13T00:07:24.277Z,72.82
2018-06-13T00:09:52.854Z,72.72
2018-06-13T00:12:21.434Z,72.62
2018-06-13T00:14:50.054Z,71.91
2018-06-13T00:17:19.189Z,72.31
2018-06-13T00:19:47.773Z,71.47
2018-06-13T00:22:16.383Z,71.95
2018-06-13T00:24:44.948Z,72.40
2018-06-13T00:27:13.568Z,71.65
2018-06-13T00:29:42.244Z,71.98
2018-06-13T00:32:10.833Z,72.62
2018-06-13T00:34:39.503Z,72.32
2018-06-13T00:37:08.131Z,72.51
2018-06-13T00:39:36.736Z,73.13
2018-06-13T00:42:05.349Z,72.17
2018-06-13T00:44:34.076Z,72.76
2018-06-13T00:47:02.629Z,73.02
2018-06-13T00:49:31.181Z,72.68
2018-06-13T00:52:00.321Z,72.51
2018-06-13T00:54:28.861Z,72.70
2018-06-13T00:56:57.663Z,72.63
2018-06-13T00:59:26.200Z,73.68
2018-06-13T01:01:54.797Z,73.37
2018-06-13T01:04:23.495Z,73.13
2018-06-13T01:06:52.210Z,73.58
2018-06-13T01:09:20.758Z,74.45
2018-06-13T01:11:49.404Z,74.70
2018-06-13T01:14:17.965Z,74.18
2018-06-13T01:16:46.552Z,73.73
2018-06-13T01:19:15.079Z,74.48
2018-06-13T01:21:43.736Z,74.06
2018-06-13T01:24:12.371Z,74.01
2018-06-13T01:26:40.994Z,74.40
2018-06-13T01:29:09.682Z,74.63
2018-06-13T01:31:38.217Z,74.87
2018-06-13T01:34:06.847Z,75.42
2018-06-13T01:36:35.384Z,74.48
2018-06-13T01:39:05.204Z,74.90
2018-06-13T01:41:33.806Z,74.40
2018-06-13T01:44:02.421Z,75.28
2018-06-13T01:46:30.967Z,74.86
2018-06-13T01:48:59.725Z,74.48
2018-06-13T01:51:28.287Z,75.21
2018-06-13T01:53:56.892Z,74.59
2018-06-13T01:56:25.788Z,75.46
2018-06-13T01:58:54.394Z,75.51
2018-06-13T02:01:22.956Z,75.95
2018-06-13T02:03:51.536Z,75.23
2018-06-13T02:06:20.146Z,76.17
2018-06-13T02:08:48.726Z,76.75
2018-06-13T02:11:17.284Z,77.15
2018-06-13T02:13:45.857Z,77.24
2018-06-13T02:16:14.443Z,78.09
2018-06-13T02:18:42.981Z,77.94
2018-06-13T02:21:11.591Z,77.59
2018-06-13T02:23:40.128Z,78.38
2018-06-13T02:26:08.712Z,78.93
2018-06-13T02:28:37.304Z,78.01
2018-06-13T02:31:05.947Z,77.83
2018-06-13T02:33:34.542Z,78.58
2018-06-13T02:36:03.127Z,78.56
2018-06-13T02:38:31.661Z,78.90
2018-06-13T02:41:00.206Z,79.17
2018-06-13T02:43:28.755Z,79.78
2018-06-13T02:45:57.405Z,79.58
2018-06-13T02:48:26.191Z,79.83
2018-06-13T02:50:54.835Z,79.60
2018-06-13T02:53:23.399Z,79.84
2018-06-13T02:55:51.957Z,79.89
2018-06-13T02:58:20.541Z,79.29
2018-06-13T03:00:49.082Z,79.16
2018-06-13T03:03:17.666Z,79.83
2018-06-13T03:05:46.220Z,79.80
2018-06-13T03:08:14.826Z,79.15
2018-06-13T03:10:43.501Z,79.08
2018-06-13T03:13:12.236Z,79.13
2018-06-13T03:15:40.782Z,79.85
2018-06-13T03:18:09.543Z,80.20
2018-06-13T03:20:38.123Z,79.75
2018-06-13T03:23:06.746Z,80.33
2018-06-13T03:25:35.330Z,80.25
2018-06-13T03:28:04.201Z,80.43
2018-06-13T03:30:33.014Z,80.93
2018-06-13T03:33:01.670Z,80.72
2018-06-13T03:35:30.208Z,80.97
2018-06-13T03:37:58.766Z,81.04
2018-06-13T03:40:27.381Z,81.50
2018-06-13T03:42:56.037Z,80.32
2018-06-13T03:45:24.572Z,80.72
2018-06-13T03:47:53.183Z,81.04
2018-06-13T03:50:21.845Z,80.39
2018-06-13T03:52:50.530Z,80.74
2018-06-13T03:55:19.111Z,80.36
2018-06-13T03:57:47.709Z,80.16
2018-06-13T04:00:16.352Z,79.66
2018-06-13T04:02:44.964Z,79.38
2018-06-13T04:05:13.688Z,80.02
2018-06-13T04:07:42.261Z,79.86
2018-06-13T04:10:10.833Z,78.78
2018-06-13T04:12:39.458Z,78.43
2018-06-13T04:15:08.029Z,76.99
2018-06-13T04:17:36.576Z,76.90
2018-06-13T04:20:05.293Z,76.16
2018-06-13T04:22:33.823Z,75.90
2018-06-13T04:25:02.433Z,76.10
2018-06-13T04:27:31.042Z,75.80
2018-06-13T04:29:59.647Z,74.99
2018-06-13T04:32:28.347Z,74.86
2018-06-13T04:34:56.940Z,74.62
2018-06-13T04:37:25.514Z,74.36
2018-06-13T04:39:54.064Z,74.27
2018-06-13T04:42:22.616Z,74.67
2018-06-13T04:44:51.177Z,74.98
2018-06-13T04:47:19.852Z,74.54
2018-06-13T04:49:48.407Z,73.91
2018-06-13T04:52:16.965Z,73.82
2018-06-13T04:54:45.561Z,74.03
2018-06-13T04:57:14.175Z,73.61
2018-06-13T04:59:42.865Z,73.96
2018-06-13T05:02:11.459Z,73.52
2018-06-13T05:04:40.147Z,72.95
2018-06-13T05:07:08.740Z,73.68
2018-06-13T05:09:37.336Z,72.64
2018-06-13T05:12:06.197Z,73.15
2018-06-13T05:14:34.744Z,73.86
2018-06-13T05:17:03.328Z,73.10
2018-06-13T05:19:32.017Z,73.42
2018-06-13T05:22:00.708Z,73.54
2018-06-13T05:24:29.308Z,73.14
2018-06-13T05:26:57.970Z,72.89
2018-06-13T05:29:26.613Z,73.06
2018-06-13T05:31:55.243Z,73.27
2018-06-13T05:34:23.911Z,73.35
2018-06-13T05:36:52.545Z,73.04
2018-06-13T05:39:21.187Z,72.92
2018-06-13T05:41:49.785Z,71.71
2018-06-13T05:44:18.368Z,72.71
2018-06-13T05:46:46.973Z,71.03
2018-06-13T05:49:15.736Z,71.15
2018-06-13T05:51:44.441Z,71.77
2018-06-13T05:54:13.212Z,70.87
2018-06-13T05:56:41.841Z,70.71
2018-06-13T05:59:10.645Z,69.85
2018-06-13T06:01:39.275Z,68.75
2018-06-13T06:04:08.580Z,69.18
2018-06-13T06:06:37.352Z,68.91
2018-06-13T06:09:08.973Z,68.43
2018-06-13T06:11:37.754Z,73.16
2018-06-13T06:14:06.388Z,68.78
2018-06-13T06:16:34.973Z,67.98
2018-06-13T06:19:03.618Z,70.58
2018-06-13T06:21:32.330Z,70.26
2018-06-13T06:24:04.034Z,71.49
2018-06-13T06:26:32.897Z,68.61
2018-06-13T06:29:01.461Z,68.29
2018-06-13T06:31:30.128Z,68.74
2018-06-13T06:33:58.753Z,69.53
2018-06-13T06:36:27.412Z,68.92
2018-06-13T06:38:56.136Z,68.35
2018-06-13T06:41:24.789Z,69.89
2018-06-13T06:43:53.473Z,68.94
2018-06-13T06:46:22.060Z,66.12
2018-06-13T06:48:51.581Z,64.97
2018-06-13T06:51:20.182Z,66.16
2018-06-13T06:53:48.794Z,65.92
2018-06-13T06:56:17.461Z,65.36
2018-06-13T06:58:46.082Z,66.40
2018-06-13T07:01:14.848Z,66.79
2018-06-13T07:03:43.661Z,67.35
2018-06-13T07:06:12.322Z,66.92
2018-06-13T07:08:40.934Z,65.85
2018-06-13T07:11:10.130Z,66.09
2018-06-13T07:13:38.765Z,65.08
2018-06-13T07:16:07.552Z,66.77
2018-06-13T07:18:36.250Z,63.26
2018-06-13T07:21:04.848Z,63.45
2018-06-13T07:23:33.585Z,62.34
2018-06-13T07:26:02.290Z,62.92
2018-06-13T07:28:31.066Z,63.25
2018-06-13T07:30:59.787Z,64.09
2018-06-13T07:33:28.519Z,63.90
2018-06-13T07:35:59.253Z,64.22
2018-06-13T07:38:27.952Z,63.74
2018-06-13T07:40:56.660Z,63.55
2018-06-13T07:43:25.436Z,63.48
2018-06-13T07:45:54.068Z,64.69
2018-06-13T07:48:22.771Z,63.07
2018-06-13T07:50:51.321Z,63.73
2018-06-13T07:53:20.237Z,64.07
2018-06-13T07:55:48.959Z,64.80
2018-06-13T07:58:17.725Z,65.91
2018-06-13T08:00:46.365Z,65.54
2018-06-13T08:03:14.942Z,65.94
2018-06-13T08:05:43.578Z,66.14
2018-06-13T08:08:12.160Z,67.40
2018-06-13T08:10:40.845Z,66.45
2018-06-13T08:13:09.414Z,67.55
2018-06-13T08:15:38.083Z,66.94
2018-06-13T08:18:06.656Z,67.14
2018-06-13T08:20:35.262Z,66.13
2018-06-13T08:23:04.009Z,66.89
2018-06-13T08:25:32.651Z,66.75
2018-06-13T08:28:01.244Z,66.83
2018-06-13T08:30:29.855Z,67.60
2018-06-13T08:32:58.405Z,65.88
2018-06-13T08:35:27.063Z,66.07
2018-06-13T08:37:55.777Z,66.59
2018-06-13T08:40:24.472Z,67.41
2018-06-13T08:42:53.024Z,65.53
2018-06-13T08:45:22.048Z,65.90
2018-06-13T08:47:50.720Z,66.54
2018-06-13T08:50:19.405Z,66.67
2018-06-13T08:52:48.026Z,66.12
2018-06-13T08:55:16.797Z,66.28
2018-06-13T08:57:45.424Z,66.30
2018-06-13T09:00:14.001Z,64.64
2018-06-13T09:02:42.686Z,65.05
2018-06-13T09:05:11.252Z,64.82
2018-06-13T09:07:39.981Z,63.42
2018-06-13T09:10:08.600Z,64.51
2018-06-13T09:12:37.384Z,65.03
2018-06-13T09:15:06.203Z,63.77
2018-06-13T09:17:34.900Z,63.29
2018-06-13T09:20:05.051Z,63.87
2018-06-13T09:22:41.931Z,63.63
2018-06-13T09:25:20.848Z,64.23
2018-06-13T09:27:51.306Z,63.63
2018-06-13T09:30:20.582Z,64.45
2018-06-13T09:32:49.387Z,63.38
2018-06-13T09:35:19.366Z,64.05
2018-06-13T09:37:57.977Z,64.71
2018-06-13T09:40:27.402Z,63.67
2018-06-13T09:42:57.785Z,63.90
2018-06-13T09:45:27.399Z,62.88
2018-06-13T09:47:56.572Z,63.92
2018-06-13T09:50:27.362Z,63.92
2018-06-13T09:52:59.939Z,64.21
2018-06-13T09:55:44.496Z,64.22
2018-06-13T10:01:17.159Z,63.31
2018-06-13T10:03:46.559Z,63.31
2018-06-13T10:06:15.590Z,64.80
2018-06-13T10:08:44.648Z,65.15
2018-06-13T10:11:13.639Z,64.28
2018-06-13T10:13:43.895Z,64.30
2018-06-13T10:16:13.194Z,63.71
2018-06-13T10:18:41.775Z,65.05
2018-06-13T10:21:10.402Z,64.36
2018-06-13T10:23:38.983Z,64.95
2018-06-13T10:26:07.565Z,63.94
2018-06-13T10:28:36.321Z,65.12
2018-06-13T10:31:05.042Z,64.35
2018-06-13T10:33:33.620Z,65.37
2018-06-13T10:36:02.240Z,63.23
2018-06-13T10:38:30.888Z,62.48
2018-06-13T10:40:59.569Z,61.05
2018-06-13T10:43:28.128Z,61.68
2018-06-13T10:45:56.961Z,62.33
2018-06-13T10:48:25.673Z,62.39
2018-06-13T10:50:54.449Z,60.74
2018-06-13T10:53:23.113Z,62.09
2018-06-13T10:55:51.662Z,61.03
2018-06-13T10:58:20.325Z,60.95
2018-06-13T11:00:49.047Z,61.14
2018-06-13T11:03:17.678Z,60.66
2018-06-13T11:05:46.536Z,60.40
2018-06-13T11:08:15.145Z,60.46
2018-06-13T11:10:43.901Z,60.26
2018-06-13T11:13:12.578Z,60.15
2018-06-13T11:15:41.262Z,62.01
2018-06-13T11:18:09.988Z,63.64
2018-06-13T11:20:38.718Z,63.52
2018-06-13T11:23:07.466Z,64.67
2018-06-13T11:25:36.200Z,63.93
2018-06-13T11:28:05.040Z,63.77
2018-06-13T11:30:33.656Z,63.75
2018-06-13T11:33:02.447Z,63.45
2018-06-13T11:35:31.064Z,63.39
2018-06-13T11:37:59.643Z,64.09
2018-06-13T11:40:28.280Z,63.79
2018-06-13T11:42:56.945Z,63.77
2018-06-13T11:45:25.654Z,63.76
2018-06-13T11:47:54.287Z,63.44
2018-06-13T11:50:23.032Z,62.96
2018-06-13T11:52:51.605Z,62.77
2018-06-13T11:55:20.336Z,61.46
2018-06-13T11:57:48.856Z,63.23
2018-06-13T12:00:17.461Z,62.58
2018-06-13T12:02:46.178Z,60.54
2018-06-13T12:05:15.120Z,60.39
2018-06-13T12:07:43.778Z,59.24
2018-06-13T12:10:12.521Z,59.34
2018-06-13T12:12:41.242Z,58.78
2018-06-13T12:15:09.874Z,58.94
2018-06-13T12:17:39.938Z,59.07
2018-06-13T12:20:08.753Z,59.00
2018-06-13T12:22:37.481Z,60.19
2018-06-13T12:25:06.305Z,59.34
2018-06-13T12:27:35.088Z,59.50
2018-06-13T12:30:03.759Z,60.17
2018-06-13T12:32:32.444Z,59.54
2018-06-13T12:35:01.200Z,61.08
2018-06-13T12:37:29.825Z,59.74
2018-06-13T12:39:58.645Z,60.72
2018-06-13T12:42:27.356Z,59.98
2018-06-13T12:44:55.997Z,58.57
2018-06-13T12:47:24.668Z,56.81
2018-06-13T12:49:53.297Z,56.20
2018-06-13T12:52:22.073Z,58.35
2018-06-13T12:54:50.684Z,54.27
2018-06-13T12:57:20.693Z,52.28
2018-06-13T12:59:49.244Z,52.00
2018-06-13T13:02:17.839Z,52.32
2018-06-13T13:04:46.603Z,52.03
2018-06-13T13:07:15.265Z,51.37
2018-06-13T13:09:43.968Z,50.97
2018-06-13T13:12:13.093Z,51.79
2018-06-13T13:14:41.893Z,51.78
2018-06-13T13:17:10.665Z,53.78
2018-06-13T13:19:39.288Z,54.53
2018-06-13T13:22:08.101Z,55.96
2018-06-13T13:24:36.729Z,55.13
2018-06-13T13:27:05.402Z,55.48
2018-06-13T13:29:35.278Z,55.28
2018-06-13T13:32:03.889Z,56.22
2018-06-13T13:34:32.572Z,54.28
2018-06-13T13:37:01.171Z,52.87
2018-06-13T13:39:29.708Z,53.68
2018-06-13T13:41:58.508Z,52.30
2018-06-13T13:44:27.177Z,53.80
2018-06-13T13:46:55.789Z,51.99
2018-06-13T13:49:24.364Z,50.35
2018-06-13T13:51:53.808Z,49.64
2018-06-13T13:54:22.433Z,47.93
2018-06-13T13:56:50.997Z,47.49
2018-06-13T13:59:19.577Z,50.04
2018-06-13T14:01:48.351Z,48.77
2018-06-13T14:04:17.637Z,50.23
2018-06-13T14:06:46.272Z,49.02
2018-06-13T14:09:14.831Z,49.58
2018-06-13T14:11:43.479Z,49.45
2018-06-13T14:14:12.226Z,50.82
2018-06-13T14:16:40.960Z,51.07
2018-06-13T14:19:09.663Z,50.89
2018-06-13T14:21:38.301Z,50.17
2018-06-13T14:24:07.160Z,50.74
2018-06-13T14:26:35.843Z,51.74
2018-06-13T14:29:04.511Z,51.94
2018-06-13T14:31:33.285Z,52.00
2018-06-13T14:34:02.152Z,53.08
2018-06-13T14:36:31.127Z,52.52
2018-06-13T14:38:59.841Z,53.19
2018-06-13T14:41:28.598Z,52.48
2018-06-13T14:43:57.276Z,53.52
2018-06-13T14:46:25.986Z,53.69
2018-06-13T14:48:54.608Z,54.29
2018-06-13T14:51:23.185Z,53.75
2018-06-13T14:53:53.970Z,53.46
2018-06-13T14:56:27.764Z,52.65
2018-06-13T14:58:57.032Z,50.00
2018-06-13T15:01:25.613Z,49.97
2018-06-13T15:03:54.285Z,49.12
2018-06-13T15:06:23.488Z,48.85
2018-06-13T15:08:52.142Z,48.17
2018-06-13T15:11:20.767Z,47.60
2018-06-13T15:13:49.775Z,46.65
2018-06-13T15:16:18.442Z,46.31
2018-06-13T15:18:47.324Z,46.40
2018-06-13T15:21:16.191Z,45.24
2018-06-13T15:23:45.092Z,45.74
2018-06-13T15:26:13.709Z,44.45
2018-06-13T15:28:42.375Z,43.64
2018-06-13T15:31:11.127Z,46.13
2018-06-13T15:33:39.723Z,47.32
2018-06-13T15:36:08.407Z,48.52
2018-06-13T15:38:37.009Z,46.20
2018-06-13T15:41:05.882Z,47.55
2018-06-13T15:43:34.524Z,50.52
2018-06-13T15:46:03.093Z,50.24
2018-06-13T15:48:31.681Z,50.92
2018-06-13T15:51:00.404Z,52.80
2018-06-13T15:53:29.141Z,52.87
2018-06-13T15:55:57.759Z,53.44
2018-06-13T15:58:26.332Z,51.26
2018-06-13T16:00:54.964Z,50.64
2018-06-13T16:03:23.629Z,51.33
2018-06-13T16:05:52.257Z,49.88
2018-06-13T16:08:20.841Z,47.33
2018-06-13T16:10:49.595Z,45.39
2018-06-13T16:13:18.182Z,46.15
2018-06-13T16:15:46.830Z,45.41
2018-06-13T16:18:15.389Z,44.23
2018-06-13T16:20:44.066Z,45.83
2018-06-13T16:23:12.697Z,43.38
2018-06-13T16:25:41.336Z,45.15
2018-06-13T16:28:09.996Z,45.25
2018-06-13T16:30:38.689Z,45.20
2018-06-13T16:33:07.362Z,46.25
2018-06-13T16:35:35.963Z,46.82
2018-06-13T16:38:04.670Z,46.20
2018-06-13T16:40:33.286Z,45.53
2018-06-13T16:43:01.898Z,45.52
2018-06-13T16:45:30.648Z,44.44
2018-06-13T16:47:59.256Z,43.08
2018-06-13T16:50:39.000Z,43.00
2018-06-13T16:54:13.262Z,44.62
2018-06-13T16:56:42.415Z,44.51
2018-06-13T16:59:11.031Z,44.93
2018-06-13T17:01:39.744Z,44.77
2018-06-13T17:04:08.528Z,47.07
2018-06-13T17:06:37.188Z,46.21
2018-06-13T17:09:07.365Z,45.05
2018-06-13T17:11:36.001Z,46.21
2018-06-13T17:14:04.660Z,45.81
2018-06-13T17:16:33.289Z,46.04
2018-06-13T17:19:01.908Z,45.98
2018-06-13T17:21:30.483Z,46.92
2018-06-13T17:23:59.224Z,46.16
2018-06-13T17:26:27.824Z,46.70
2018-06-13T17:28:56.702Z,46.71
2018-06-13T17:31:25.466Z,46.99
2018-06-13T17:33:54.317Z,47.07
2018-06-13T17:36:22.981Z,47.21
2018-06-13T17:38:51.710Z,48.21
2018-06-13T17:41:20.507Z,48.52
2018-06-13T17:43:49.053Z,48.96
2018-06-13T17:46:17.911Z,48.43
2018-06-13T17:48:46.683Z,48.46
2018-06-13T17:51:15.469Z,48.00
2018-06-13T17:53:44.475Z,48.14
2018-06-13T17:56:13.301Z,47.92
2018-06-13T17:58:41.933Z,48.02
2018-06-13T18:01:10.696Z,48.81
2018-06-13T18:03:39.310Z,48.63
2018-06-13T18:06:07.959Z,49.02
2018-06-13T18:08:36.575Z,49.14
2018-06-13T18:13:57.250Z,49.58
2018-06-13T18:16:26.089Z,49.13
2018-06-13T18:18:54.749Z,49.39
2018-06-13T18:21:23.786Z,49.70
2018-06-13T18:23:52.578Z,49.29
2018-06-13T18:26:21.176Z,48.79
2018-06-13T18:28:49.851Z,48.99
2018-06-13T18:31:18.503Z,48.93
2018-06-13T18:33:47.182Z,49.05
2018-06-13T18:36:15.837Z,49.92
2018-06-13T18:38:44.561Z,49.48
2018-06-13T18:41:13.169Z,48.91
2018-06-13T18:43:41.899Z,48.43
2018-06-13T18:46:10.542Z,47.93
2018-06-13T18:48:39.245Z,49.02
2018-06-13T18:51:07.901Z,49.11
2018-06-13T18:53:36.524Z,49.30
2018-06-13T18:56:05.310Z,50.07
2018-06-13T18:58:33.964Z,50.85
2018-06-13T19:01:02.631Z,50.86
2018-06-13T19:03:31.262Z,51.47
2018-06-13T19:05:59.980Z,51.66
2018-06-13T19:08:28.588Z,51.36
2018-06-13T19:10:57.319Z,52.24
2018-06-13T19:13:25.986Z,51.79
2018-06-13T19:15:54.584Z,51.96
2018-06-13T19:18:23.121Z,51.89
2018-06-13T19:20:51.776Z,52.74
2018-06-13T19:23:20.344Z,53.38
2018-06-13T19:25:49.039Z,53.24
2018-06-13T19:28:17.669Z,54.17
2018-06-13T19:30:46.441Z,54.75
2018-06-13T19:33:15.036Z,55.29
2018-06-13T19:35:43.664Z,55.47
2018-06-13T19:38:12.287Z,55.69
2018-06-13T19:40:41.053Z,55.57
2018-06-13T19:43:14.892Z,55.47
2018-06-13T19:45:43.546Z,55.07
2018-06-13T19:49:17.508Z,55.86
2018-06-13T19:51:46.166Z,57.62
2018-06-13T19:54:19.731Z,57.70
2018-06-13T19:56:48.330Z,58.67
2018-06-13T19:59:16.909Z,58.64
2018-06-13T20:01:45.569Z,59.14
2018-06-13T20:04:19.411Z,58.72
2018-06-13T20:06:48.088Z,59.83
2018-06-13T20:09:16.752Z,60.72
2018-06-13T20:11:45.361Z,59.64
2018-06-13T20:14:19.136Z,61.19
2018-06-13T20:16:53.674Z,61.27
2018-06-13T20:19:27.478Z,60.37
2018-06-13T20:21:57.432Z,60.01
2018-06-13T20:24:26.180Z,62.90
2018-06-13T20:26:59.899Z,62.97
2018-06-13T20:29:33.632Z,60.80
2018-06-13T20:32:02.357Z,59.57
2018-06-13T20:34:30.965Z,56.57
2018-06-13T20:36:59.640Z,57.45
2018-06-13T20:39:28.298Z,58.33
2018-06-13T20:41:56.866Z,59.62
2018-06-13T20:44:26.013Z,59.67
2018-06-13T20:46:54.656Z,61.17
2018-06-13T20:49:23.264Z,62.60
2018-06-13T20:51:51.870Z,61.88
2018-06-13T20:54:20.605Z,61.05
2018-06-13T20:56:49.136Z,61.31
2018-06-13T20:59:17.742Z,60.55
2018-06-13T21:01:47.007Z,60.87
2018-06-13T21:04:15.643Z,61.76
2018-06-13T21:06:44.202Z,62.89
2018-06-13T21:09:12.788Z,62.47
2018-06-13T21:11:41.398Z,61.52
2018-06-13T21:14:10.172Z,61.55
2018-06-13T21:16:38.780Z,60.59
2018-06-13T21:19:07.428Z,61.17
2018-06-13T21:21:36.061Z,61.30
2018-06-13T21:24:04.749Z,61.40
2018-06-13T21:26:33.345Z,61.51
2018-06-13T21:29:02.149Z,61.24
2018-06-13T21:31:30.817Z,60.72
2018-06-13T21:33:59.408Z,62.50
2018-06-13T21:36:28.173Z,64.27
2018-06-13T21:38:56.786Z,66.05
2018-06-13T21:41:25.563Z,67.84
2018-06-13T21:43:54.908Z,68.00
2018-06-13T21:46:23.609Z,68.64
2018-06-13T21:48:52.311Z,69.29
2018-06-13T21:51:20.973Z,69.05
2018-06-13T21:53:49.781Z,69.33
2018-06-13T21:56:18.460Z,69.39
2018-06-13T21:58:47.411Z,70.30
2018-06-13T22:01:16.054Z,69.71
2018-06-13T22:03:45.199Z,69.95
2018-06-13T22:06:13.773Z,70.03
2018-06-13T22:08:42.545Z,71.53
2018-06-13T22:11:11.504Z,71.55
2018-06-13T22:13:40.156Z,72.76
2018-06-13T22:16:08.797Z,72.22
2018-06-13T22:18:37.544Z,72.50
2018-06-13T22:21:06.117Z,73.69
2018-06-13T22:23:34.764Z,73.16
2018-06-13T22:26:03.352Z,72.76
2018-06-13T22:28:32.147Z,73.88
2018-06-13T22:31:00.761Z,73.55
2018-06-13T22:33:29.443Z,73.83
2018-06-13T22:35:58.138Z,74.39
2018-06-13T22:38:26.748Z,74.94
2018-06-13T22:40:55.395Z,74.15
2018-06-13T22:43:23.951Z,73.88
2018-06-13T22:45:52.590Z,74.99
2018-06-13T22:48:21.133Z,73.44
2018-06-13T22:50:49.968Z,73.67
2018-06-13T22:53:18.610Z,73.57
2018-06-13T22:55:47.312Z,73.16
2018-06-13T22:58:16.486Z,73.35
2018-06-13T23:06:25.368Z,75.10
2018-06-13T23:08:54.174Z,74.27
2018-06-13T23:11:24.242Z,75.68
2018-06-13T23:13:53.259Z,75.03
2018-06-13T23:16:22.381Z,74.40
2018-06-13T23:18:56.605Z,74.81
2018-06-13T23:21:25.397Z,74.64
2018-06-13T23:23:54.221Z,75.57
2018-06-13T23:26:23.353Z,75.40
2018-06-13T23:28:52.682Z,74.73
2018-06-13T23:31:21.703Z,75.18
2018-06-13T23:33:50.490Z,74.40
2018-06-13T23:36:19.403Z,74.79
2018-06-13T23:38:48.428Z,75.35
2018-06-13T23:41:19.096Z,74.49
2018-06-13T23:43:47.768Z,74.88
2018-06-13T23:46:16.504Z,74.12
2018-06-13T23:48:45.314Z,74.12
2018-06-13T23:51:14.096Z,74.09
2018-06-13T23:53:42.880Z,74.21
2018-06-13T23:56:11.560Z,74.01
2018-06-13T23:58:40.165Z,74.61
